sensor_id;sensor_type;location;lat;lon;timestamp;P1;durP1;ratioP1;P2;durP2;ratioP2
13419;SDS011;6781;58.440;15.470;2023-05-10T00:02:06;4.47;;;2.77;;
13419;SDS011;6781;58.440;15.470;2023-05-10T00:04:33;3.23;;;3.03;;
13419;SDS011;6781;58.440;15.470;2023-05-10T00:07:00;2.85;;;2.65;;
13419;SDS011;6781;58.440;15.470;2023-05-10T00:09:27;3.20;;;2.90;;
13419;SDS011;6781;58.440;15.470;2023-05-10T00:11:55;4.40;;;3.30;;
13419;SDS011;6781;58.440;15.470;2023-05-10T00:14:26;6.00;;;3.33;;
13419;SDS011;6781;58.440;15.470;2023-05-10T00:16:53;3.07;;;2.60;;
13419;SDS011;6781;58.440;15.470;2023-05-10T00:19:21;3.00;;;2.67;;
13419;SDS011;6781;58.440;15.470;2023-05-10T00:21:48;2.93;;;2.70;;
13419;SDS011;6781;58.440;15.470;2023-05-10T00:24:15;5.60;;;2.90;;
13419;SDS011;6781;58.440;15.470;2023-05-10T00:26:42;3.83;;;2.60;;
13419;SDS011;6781;58.440;15.470;2023-05-10T00:29:09;2.80;;;2.50;;
13419;SDS011;6781;58.440;15.470;2023-05-10T00:31:37;4.50;;;2.93;;
13419;SDS011;6781;58.440;15.470;2023-05-10T00:34:05;3.10;;;2.87;;
13419;SDS011;6781;58.440;15.470;2023-05-10T00:36:31;2.80;;;2.50;;
13419;SDS011;6781;58.440;15.470;2023-05-10T00:38:58;3.40;;;2.90;;
13419;SDS011;6781;58.440;15.470;2023-05-10T00:41:25;5.03;;;3.20;;
13419;SDS011;6781;58.440;15.470;2023-05-10T00:43:52;5.23;;;3.10;;
13419;SDS011;6781;58.440;15.470;2023-05-10T00:46:19;2.97;;;2.67;;
13419;SDS011;6781;58.440;15.470;2023-05-10T00:48:49;3.50;;;3.10;;
13419;SDS011;6781;58.440;15.470;2023-05-10T00:51:16;3.30;;;2.90;;
13419;SDS011;6781;58.440;15.470;2023-05-10T00:53:43;4.23;;;3.10;;
13419;SDS011;6781;58.440;15.470;2023-05-10T00:56:11;3.70;;;3.37;;
13419;SDS011;6781;58.440;15.470;2023-05-10T00:58:39;6.07;;;3.33;;
13419;SDS011;6781;58.440;15.470;2023-05-10T01:01:08;3.47;;;3.17;;
13419;SDS011;6781;58.440;15.470;2023-05-10T01:03:35;3.87;;;3.47;;
13419;SDS011;6781;58.440;15.470;2023-05-10T01:06:05;3.63;;;3.33;;
13419;SDS011;6781;58.440;15.470;2023-05-10T01:08:32;3.57;;;3.20;;
13419;SDS011;6781;58.440;15.470;2023-05-10T01:11:00;4.37;;;3.23;;
13419;SDS011;6781;58.440;15.470;2023-05-10T01:13:30;5.83;;;3.37;;
13419;SDS011;6781;58.440;15.470;2023-05-10T01:16:02;3.60;;;3.30;;
13419;SDS011;6781;58.440;15.470;2023-05-10T01:18:30;3.73;;;3.03;;
13419;SDS011;6781;58.440;15.470;2023-05-10T01:21:04;3.30;;;3.00;;
13419;SDS011;6781;58.440;15.470;2023-05-10T01:27:14;4.07;;;3.53;;
13419;SDS011;6781;58.440;15.470;2023-05-10T01:33:04;4.43;;;3.07;;
13419;SDS011;6781;58.440;15.470;2023-05-10T01:35:38;4.47;;;3.47;;
13419;SDS011;6781;58.440;15.470;2023-05-10T01:38:11;3.57;;;3.27;;
13419;SDS011;6781;58.440;15.470;2023-05-10T01:40:46;5.60;;;3.30;;
13419;SDS011;6781;58.440;15.470;2023-05-10T01:43:19;4.67;;;3.37;;
13419;SDS011;6781;58.440;15.470;2023-05-10T01:45:50;4.77;;;3.03;;
13419;SDS011;6781;58.440;15.470;2023-05-10T01:48:31;4.33;;;3.43;;
13419;SDS011;6781;58.440;15.470;2023-05-10T01:50:59;4.77;;;3.63;;
13419;SDS011;6781;58.440;15.470;2023-05-10T01:53:27;4.33;;;3.70;;
13419;SDS011;6781;58.440;15.470;2023-05-10T01:55:55;3.73;;;3.40;;
13419;SDS011;6781;58.440;15.470;2023-05-10T01:58:25;4.77;;;3.87;;
13419;SDS011;6781;58.440;15.470;2023-05-10T02:00:56;4.80;;;4.17;;
13419;SDS011;6781;58.440;15.470;2023-05-10T02:03:26;3.90;;;3.60;;
13419;SDS011;6781;58.440;15.470;2023-05-10T02:08:31;4.27;;;3.67;;
13419;SDS011;6781;58.440;15.470;2023-05-10T02:11:01;5.63;;;3.90;;
13419;SDS011;6781;58.440;15.470;2023-05-10T02:13:31;4.47;;;3.77;;
13419;SDS011;6781;58.440;15.470;2023-05-10T02:16:04;4.20;;;3.20;;
13419;SDS011;6781;58.440;15.470;2023-05-10T02:18:32;4.57;;;3.83;;
13419;SDS011;6781;58.440;15.470;2023-05-10T02:21:01;4.17;;;3.77;;
13419;SDS011;6781;58.440;15.470;2023-05-10T02:23:31;6.33;;;4.00;;
13419;SDS011;6781;58.440;15.470;2023-05-10T02:26:02;4.20;;;3.80;;
13419;SDS011;6781;58.440;15.470;2023-05-10T02:28:31;4.87;;;4.10;;
13419;SDS011;6781;58.440;15.470;2023-05-10T02:30:59;5.10;;;3.80;;
13419;SDS011;6781;58.440;15.470;2023-05-10T02:33:27;5.43;;;4.27;;
13419;SDS011;6781;58.440;15.470;2023-05-10T02:35:55;4.70;;;4.27;;
13419;SDS011;6781;58.440;15.470;2023-05-10T02:38:23;8.27;;;4.63;;
13419;SDS011;6781;58.440;15.470;2023-05-10T02:40:53;4.87;;;4.33;;
13419;SDS011;6781;58.440;15.470;2023-05-10T02:43:21;6.70;;;4.57;;
13419;SDS011;6781;58.440;15.470;2023-05-10T02:45:49;4.60;;;4.20;;
13419;SDS011;6781;58.440;15.470;2023-05-10T02:48:16;4.97;;;4.20;;
13419;SDS011;6781;58.440;15.470;2023-05-10T02:50:47;5.07;;;4.60;;
13419;SDS011;6781;58.440;15.470;2023-05-10T02:53:20;5.43;;;4.37;;
13419;SDS011;6781;58.440;15.470;2023-05-10T02:55:50;4.47;;;4.10;;
13419;SDS011;6781;58.440;15.470;2023-05-10T02:58:26;7.63;;;4.60;;
13419;SDS011;6781;58.440;15.470;2023-05-10T03:00:55;4.53;;;4.13;;
13419;SDS011;6781;58.440;15.470;2023-05-10T03:03:22;4.70;;;4.20;;
13419;SDS011;6781;58.440;15.470;2023-05-10T03:05:51;4.70;;;4.23;;
13419;SDS011;6781;58.440;15.470;2023-05-10T03:08:20;6.50;;;4.17;;
13419;SDS011;6781;58.440;15.470;2023-05-10T03:10:51;4.87;;;4.30;;
13419;SDS011;6781;58.440;15.470;2023-05-10T03:13:34;5.17;;;4.37;;
13419;SDS011;6781;58.440;15.470;2023-05-10T03:16:12;5.13;;;4.30;;
13419;SDS011;6781;58.440;15.470;2023-05-10T03:18:43;5.10;;;4.30;;
13419;SDS011;6781;58.440;15.470;2023-05-10T03:21:14;5.90;;;4.33;;
13419;SDS011;6781;58.440;15.470;2023-05-10T03:23:50;4.93;;;4.13;;
13419;SDS011;6781;58.440;15.470;2023-05-10T03:26:23;4.50;;;3.83;;
13419;SDS011;6781;58.440;15.470;2023-05-10T03:28:52;4.17;;;3.80;;
13419;SDS011;6781;58.440;15.470;2023-05-10T03:33:56;4.60;;;4.10;;
13419;SDS011;6781;58.440;15.470;2023-05-10T03:36:23;4.03;;;3.63;;
13419;SDS011;6781;58.440;15.470;2023-05-10T03:38:50;5.43;;;3.60;;
13419;SDS011;6781;58.440;15.470;2023-05-10T03:41:24;5.70;;;3.70;;
13419;SDS011;6781;58.440;15.470;2023-05-10T03:43:51;4.30;;;3.90;;
13419;SDS011;6781;58.440;15.470;2023-05-10T03:46:18;3.93;;;3.47;;
13419;SDS011;6781;58.440;15.470;2023-05-10T03:48:54;5.67;;;3.97;;
13419;SDS011;6781;58.440;15.470;2023-05-10T03:51:21;4.70;;;3.37;;
13419;SDS011;6781;58.440;15.470;2023-05-10T03:53:50;3.60;;;3.30;;
13419;SDS011;6781;58.440;15.470;2023-05-10T03:56:17;5.57;;;3.67;;
13419;SDS011;6781;58.440;15.470;2023-05-10T03:58:47;5.50;;;3.80;;
13419;SDS011;6781;58.440;15.470;2023-05-10T04:01:14;4.00;;;3.60;;
13419;SDS011;6781;58.440;15.470;2023-05-10T04:03:41;5.27;;;3.87;;
13419;SDS011;6781;58.440;15.470;2023-05-10T04:06:08;4.67;;;4.10;;
13419;SDS011;6781;58.440;15.470;2023-05-10T04:08:36;6.70;;;4.20;;
13419;SDS011;6781;58.440;15.470;2023-05-10T04:11:04;4.27;;;3.73;;
13419;SDS011;6781;58.440;15.470;2023-05-10T04:13:32;4.90;;;4.03;;
13419;SDS011;6781;58.440;15.470;2023-05-10T04:16:04;6.37;;;4.20;;
13419;SDS011;6781;58.440;15.470;2023-05-10T04:18:32;4.33;;;3.80;;
13419;SDS011;6781;58.440;15.470;2023-05-10T04:21:00;4.47;;;3.87;;
13419;SDS011;6781;58.440;15.470;2023-05-10T04:23:27;4.13;;;3.83;;
13419;SDS011;6781;58.440;15.470;2023-05-10T04:26:00;4.27;;;3.87;;
13419;SDS011;6781;58.440;15.470;2023-05-10T04:28:28;4.73;;;4.30;;
13419;SDS011;6781;58.440;15.470;2023-05-10T04:31:00;4.23;;;3.73;;
13419;SDS011;6781;58.440;15.470;2023-05-10T04:33:32;5.33;;;4.13;;
13419;SDS011;6781;58.440;15.470;2023-05-10T04:36:00;3.97;;;3.67;;
13419;SDS011;6781;58.440;15.470;2023-05-10T04:38:30;4.60;;;4.20;;
13419;SDS011;6781;58.440;15.470;2023-05-10T04:41:03;4.83;;;4.40;;
13419;SDS011;6781;58.440;15.470;2023-05-10T04:43:31;5.03;;;4.07;;
13419;SDS011;6781;58.440;15.470;2023-05-10T04:45:58;5.23;;;4.70;;
13419;SDS011;6781;58.440;15.470;2023-05-10T04:48:25;4.00;;;3.67;;
13419;SDS011;6781;58.440;15.470;2023-05-10T04:50:57;6.67;;;4.63;;
13419;SDS011;6781;58.440;15.470;2023-05-10T04:53:29;5.03;;;4.37;;
13419;SDS011;6781;58.440;15.470;2023-05-10T04:55:56;8.20;;;5.20;;
13419;SDS011;6781;58.440;15.470;2023-05-10T04:58:23;5.70;;;4.37;;
13419;SDS011;6781;58.440;15.470;2023-05-10T05:00:51;5.73;;;4.33;;
13419;SDS011;6781;58.440;15.470;2023-05-10T05:03:18;5.00;;;4.20;;
13419;SDS011;6781;58.440;15.470;2023-05-10T05:05:45;5.03;;;4.20;;
13419;SDS011;6781;58.440;15.470;2023-05-10T05:08:14;5.73;;;4.20;;
13419;SDS011;6781;58.440;15.470;2023-05-10T05:10:41;4.77;;;4.17;;
13419;SDS011;6781;58.440;15.470;2023-05-10T05:13:12;4.47;;;3.87;;
13419;SDS011;6781;58.440;15.470;2023-05-10T05:15:55;5.53;;;3.80;;
13419;SDS011;6781;58.440;15.470;2023-05-10T05:18:23;4.70;;;4.30;;
13419;SDS011;6781;58.440;15.470;2023-05-10T05:20:52;4.67;;;4.27;;
13419;SDS011;6781;58.440;15.470;2023-05-10T05:23:22;6.57;;;4.50;;
13419;SDS011;6781;58.440;15.470;2023-05-10T05:25:51;4.03;;;3.63;;
13419;SDS011;6781;58.440;15.470;2023-05-10T05:28:20;4.33;;;3.90;;
13419;SDS011;6781;58.440;15.470;2023-05-10T05:30:50;5.37;;;4.07;;
13419;SDS011;6781;58.440;15.470;2023-05-10T05:33:18;5.57;;;3.70;;
13419;SDS011;6781;58.440;15.470;2023-05-10T05:35:45;5.57;;;3.50;;
13419;SDS011;6781;58.440;15.470;2023-05-10T05:38:15;5.97;;;3.90;;
13419;SDS011;6781;58.440;15.470;2023-05-10T05:40:44;5.63;;;4.27;;
13419;SDS011;6781;58.440;15.470;2023-05-10T05:43:12;6.13;;;3.93;;
13419;SDS011;6781;58.440;15.470;2023-05-10T05:45:39;5.50;;;3.70;;
13419;SDS011;6781;58.440;15.470;2023-05-10T05:48:06;5.30;;;3.87;;
13419;SDS011;6781;58.440;15.470;2023-05-10T05:50:34;4.85;;;3.45;;
13419;SDS011;6781;58.440;15.470;2023-05-10T05:53:01;6.07;;;3.33;;
13419;SDS011;6781;58.440;15.470;2023-05-10T05:55:28;4.22;;;3.58;;
13419;SDS011;6781;58.440;15.470;2023-05-10T05:57:58;5.43;;;3.70;;
13419;SDS011;6781;58.440;15.470;2023-05-10T06:00:25;4.63;;;3.70;;
13419;SDS011;6781;58.440;15.470;2023-05-10T06:02:52;3.70;;;3.35;;
13419;SDS011;6781;58.440;15.470;2023-05-10T06:05:20;5.20;;;3.50;;
13419;SDS011;6781;58.440;15.470;2023-05-10T06:07:49;3.90;;;3.20;;
13419;SDS011;6781;58.440;15.470;2023-05-10T06:10:22;6.53;;;3.60;;
13419;SDS011;6781;58.440;15.470;2023-05-10T06:12:52;3.22;;;2.92;;
13419;SDS011;6781;58.440;15.470;2023-05-10T06:15:20;4.35;;;3.58;;
13419;SDS011;6781;58.440;15.470;2023-05-10T06:17:48;3.45;;;3.10;;
13419;SDS011;6781;58.440;15.470;2023-05-10T06:20:15;4.18;;;3.05;;
13419;SDS011;6781;58.440;15.470;2023-05-10T06:22:42;3.40;;;3.05;;
13419;SDS011;6781;58.440;15.470;2023-05-10T06:25:10;4.75;;;3.17;;
13419;SDS011;6781;58.440;15.470;2023-05-10T06:27:37;3.53;;;3.22;;
13419;SDS011;6781;58.440;15.470;2023-05-10T06:30:05;5.00;;;3.17;;
13419;SDS011;6781;58.440;15.470;2023-05-10T06:32:35;5.10;;;3.28;;
13419;SDS011;6781;58.440;15.470;2023-05-10T06:35:02;5.65;;;3.03;;
13419;SDS011;6781;58.440;15.470;2023-05-10T06:37:30;7.05;;;2.97;;
13419;SDS011;6781;58.440;15.470;2023-05-10T06:39:57;4.57;;;3.60;;
13419;SDS011;6781;58.440;15.470;2023-05-10T06:42:24;3.47;;;2.90;;
13419;SDS011;6781;58.440;15.470;2023-05-10T06:44:52;3.78;;;3.00;;
13419;SDS011;6781;58.440;15.470;2023-05-10T06:47:19;7.10;;;3.00;;
13419;SDS011;6781;58.440;15.470;2023-05-10T06:49:48;7.13;;;2.92;;
13419;SDS011;6781;58.440;15.470;2023-05-10T06:52:15;4.07;;;2.75;;
13419;SDS011;6781;58.440;15.470;2023-05-10T06:54:43;4.07;;;3.28;;
13419;SDS011;6781;58.440;15.470;2023-05-10T06:57:10;3.10;;;2.90;;
13419;SDS011;6781;58.440;15.470;2023-05-10T06:59:46;3.10;;;2.53;;
13419;SDS011;6781;58.440;15.470;2023-05-10T07:02:13;3.58;;;3.17;;
13419;SDS011;6781;58.440;15.470;2023-05-10T07:04:41;3.08;;;2.88;;
13419;SDS011;6781;58.440;15.470;2023-05-10T07:07:15;4.20;;;2.92;;
13419;SDS011;6781;58.440;15.470;2023-05-10T07:09:42;4.22;;;3.00;;
13419;SDS011;6781;58.440;15.470;2023-05-10T07:12:10;6.03;;;2.80;;
13419;SDS011;6781;58.440;15.470;2023-05-10T07:14:40;3.03;;;2.60;;
13419;SDS011;6781;58.440;15.470;2023-05-10T07:17:07;2.80;;;2.58;;
13419;SDS011;6781;58.440;15.470;2023-05-10T07:19:34;2.70;;;2.50;;
13419;SDS011;6781;58.440;15.470;2023-05-10T07:22:02;2.53;;;2.20;;
13419;SDS011;6781;58.440;15.470;2023-05-10T07:24:31;6.43;;;2.67;;
13419;SDS011;6781;58.440;15.470;2023-05-10T07:26:58;6.05;;;2.30;;
13419;SDS011;6781;58.440;15.470;2023-05-10T07:29:25;2.92;;;2.65;;
13419;SDS011;6781;58.440;15.470;2023-05-10T07:31:53;3.40;;;2.38;;
13419;SDS011;6781;58.440;15.470;2023-05-10T07:34:20;3.63;;;2.58;;
13419;SDS011;6781;58.440;15.470;2023-05-10T07:36:51;3.25;;;2.38;;
13419;SDS011;6781;58.440;15.470;2023-05-10T07:39:18;2.85;;;2.47;;
13419;SDS011;6781;58.440;15.470;2023-05-10T07:41:47;5.00;;;2.45;;
13419;SDS011;6781;58.440;15.470;2023-05-10T07:44:14;4.10;;;2.28;;
13419;SDS011;6781;58.440;15.470;2023-05-10T07:46:43;5.45;;;2.63;;
13419;SDS011;6781;58.440;15.470;2023-05-10T07:49:10;4.13;;;2.47;;
13419;SDS011;6781;58.440;15.470;2023-05-10T07:51:39;3.00;;;2.70;;
13419;SDS011;6781;58.440;15.470;2023-05-10T07:54:06;3.40;;;2.33;;
13419;SDS011;6781;58.440;15.470;2023-05-10T07:56:33;2.40;;;2.20;;
13419;SDS011;6781;58.440;15.470;2023-05-10T07:59:03;4.10;;;2.67;;
13419;SDS011;6781;58.440;15.470;2023-05-10T08:01:32;2.53;;;2.25;;
13419;SDS011;6781;58.440;15.470;2023-05-10T08:04:00;2.65;;;2.45;;
13419;SDS011;6781;58.440;15.470;2023-05-10T08:06:28;3.53;;;2.50;;
13419;SDS011;6781;58.440;15.470;2023-05-10T08:08:55;5.78;;;2.30;;
13419;SDS011;6781;58.440;15.470;2023-05-10T08:11:22;6.28;;;2.42;;
13419;SDS011;6781;58.440;15.470;2023-05-10T08:13:49;2.63;;;2.42;;
13419;SDS011;6781;58.440;15.470;2023-05-10T08:16:18;5.15;;;2.40;;
13419;SDS011;6781;58.440;15.470;2023-05-10T08:18:46;4.15;;;2.47;;
13419;SDS011;6781;58.440;15.470;2023-05-10T08:21:14;2.50;;;2.30;;
13419;SDS011;6781;58.440;15.470;2023-05-10T08:23:41;4.10;;;2.15;;
13419;SDS011;6781;58.440;15.470;2023-05-10T08:26:09;2.67;;;2.45;;
13419;SDS011;6781;58.440;15.470;2023-05-10T08:28:36;4.95;;;2.38;;
13419;SDS011;6781;58.440;15.470;2023-05-10T08:31:06;2.45;;;2.30;;
13419;SDS011;6781;58.440;15.470;2023-05-10T08:33:35;2.72;;;2.25;;
13419;SDS011;6781;58.440;15.470;2023-05-10T08:36:02;2.53;;;2.33;;
13419;SDS011;6781;58.440;15.470;2023-05-10T08:38:32;3.45;;;2.20;;
13419;SDS011;6781;58.440;15.470;2023-05-10T08:40:59;2.85;;;2.30;;
13419;SDS011;6781;58.440;15.470;2023-05-10T08:43:29;3.88;;;2.30;;
13419;SDS011;6781;58.440;15.470;2023-05-10T08:45:56;2.13;;;2.00;;
13419;SDS011;6781;58.440;15.470;2023-05-10T08:48:28;2.75;;;2.35;;
13419;SDS011;6781;58.440;15.470;2023-05-10T08:50:58;3.70;;;2.13;;
13419;SDS011;6781;58.440;15.470;2023-05-10T08:53:28;2.97;;;2.20;;
13419;SDS011;6781;58.440;15.470;2023-05-10T08:55:57;2.10;;;1.88;;
13419;SDS011;6781;58.440;15.470;2023-05-10T08:58:24;2.13;;;1.90;;
13419;SDS011;6781;58.440;15.470;2023-05-10T09:00:52;2.65;;;2.15;;
13419;SDS011;6781;58.440;15.470;2023-05-10T09:03:20;5.13;;;2.30;;
13419;SDS011;6781;58.440;15.470;2023-05-10T09:05:47;3.83;;;2.08;;
13419;SDS011;6781;58.440;15.470;2023-05-10T09:08:18;2.45;;;2.00;;
13419;SDS011;6781;58.440;15.470;2023-05-10T09:10:46;2.92;;;2.03;;
13419;SDS011;6781;58.440;15.470;2023-05-10T09:13:15;2.83;;;2.03;;
13419;SDS011;6781;58.440;15.470;2023-05-10T09:15:43;2.53;;;2.25;;
13419;SDS011;6781;58.440;15.470;2023-05-10T09:18:11;2.35;;;2.15;;
13419;SDS011;6781;58.440;15.470;2023-05-10T09:20:38;2.97;;;2.15;;
13419;SDS011;6781;58.440;15.470;2023-05-10T09:23:05;2.75;;;2.15;;
13419;SDS011;6781;58.440;15.470;2023-05-10T09:25:34;4.38;;;2.22;;
13419;SDS011;6781;58.440;15.470;2023-05-10T09:28:05;2.85;;;2.08;;
13419;SDS011;6781;58.440;15.470;2023-05-10T09:30:34;2.30;;;2.10;;
13419;SDS011;6781;58.440;15.470;2023-05-10T09:33:02;2.40;;;2.20;;
13419;SDS011;6781;58.440;15.470;2023-05-10T09:35:29;3.47;;;2.10;;
13419;SDS011;6781;58.440;15.470;2023-05-10T09:37:58;2.55;;;2.00;;
13419;SDS011;6781;58.440;15.470;2023-05-10T09:40:30;2.78;;;1.95;;
13419;SDS011;6781;58.440;15.470;2023-05-10T09:43:16;2.35;;;2.13;;
13419;SDS011;6781;58.440;15.470;2023-05-10T09:45:54;2.38;;;2.17;;
13419;SDS011;6781;58.440;15.470;2023-05-10T09:48:24;2.58;;;1.80;;
13419;SDS011;6781;58.440;15.470;2023-05-10T09:50:56;2.45;;;1.92;;
13419;SDS011;6781;58.440;15.470;2023-05-10T09:53:26;3.70;;;2.38;;
13419;SDS011;6781;58.440;15.470;2023-05-10T09:55:56;2.70;;;2.47;;
13419;SDS011;6781;58.440;15.470;2023-05-10T09:58:24;3.75;;;2.10;;
13419;SDS011;6781;58.440;15.470;2023-05-10T10:00:51;4.55;;;2.35;;
13419;SDS011;6781;58.440;15.470;2023-05-10T10:03:20;3.28;;;2.33;;
13419;SDS011;6781;58.440;15.470;2023-05-10T10:05:53;4.47;;;2.40;;
13419;SDS011;6781;58.440;15.470;2023-05-10T10:08:22;4.32;;;1.90;;
13419;SDS011;6781;58.440;15.470;2023-05-10T10:10:49;2.45;;;1.95;;
13419;SDS011;6781;58.440;15.470;2023-05-10T10:13:16;2.20;;;2.00;;
13419;SDS011;6781;58.440;15.470;2023-05-10T10:15:45;4.25;;;1.98;;
13419;SDS011;6781;58.440;15.470;2023-05-10T10:18:16;2.38;;;2.10;;
13419;SDS011;6781;58.440;15.470;2023-05-10T10:20:44;3.67;;;2.20;;
13419;SDS011;6781;58.440;15.470;2023-05-10T10:23:15;3.50;;;2.17;;
13419;SDS011;6781;58.440;15.470;2023-05-10T10:25:42;3.72;;;1.90;;
13419;SDS011;6781;58.440;15.470;2023-05-10T10:28:12;2.33;;;1.98;;
13419;SDS011;6781;58.440;15.470;2023-05-10T10:30:51;4.60;;;2.17;;
13419;SDS011;6781;58.440;15.470;2023-05-10T10:33:28;4.85;;;1.90;;
13419;SDS011;6781;58.440;15.470;2023-05-10T10:36:03;2.72;;;2.15;;
13419;SDS011;6781;58.440;15.470;2023-05-10T10:38:37;3.20;;;1.90;;
13419;SDS011;6781;58.440;15.470;2023-05-10T10:41:27;3.20;;;1.90;;
13419;SDS011;6781;58.440;15.470;2023-05-10T10:47:01;2.38;;;2.17;;
13419;SDS011;6781;58.440;15.470;2023-05-10T10:49:31;3.25;;;2.13;;
13419;SDS011;6781;58.440;15.470;2023-05-10T10:52:12;4.68;;;2.28;;
13419;SDS011;6781;58.440;15.470;2023-05-10T10:54:51;2.30;;;2.08;;
13419;SDS011;6781;58.440;15.470;2023-05-10T10:57:24;4.90;;;2.50;;
13419;SDS011;6781;58.440;15.470;2023-05-10T11:00:22;3.80;;;2.53;;
13419;SDS011;6781;58.440;15.470;2023-05-10T11:02:55;2.75;;;2.10;;
13419;SDS011;6781;58.440;15.470;2023-05-10T11:08:07;2.28;;;2.00;;
13419;SDS011;6781;58.440;15.470;2023-05-10T11:10:36;2.28;;;2.10;;
13419;SDS011;6781;58.440;15.470;2023-05-10T11:13:04;2.28;;;2.08;;
13419;SDS011;6781;58.440;15.470;2023-05-10T11:15:33;3.83;;;2.30;;
13419;SDS011;6781;58.440;15.470;2023-05-10T11:20:58;2.92;;;2.50;;
13419;SDS011;6781;58.440;15.470;2023-05-10T11:23:31;3.63;;;2.28;;
13419;SDS011;6781;58.440;15.470;2023-05-10T11:25:59;4.18;;;2.58;;
13419;SDS011;6781;58.440;15.470;2023-05-10T11:28:31;3.25;;;2.53;;
13419;SDS011;6781;58.440;15.470;2023-05-10T11:30:58;3.33;;;2.65;;
13419;SDS011;6781;58.440;15.470;2023-05-10T11:33:26;5.20;;;2.60;;
13419;SDS011;6781;58.440;15.470;2023-05-10T11:36:12;2.15;;;1.98;;
13419;SDS011;6781;58.440;15.470;2023-05-10T11:38:43;3.40;;;2.33;;
13419;SDS011;6781;58.440;15.470;2023-05-10T11:41:10;3.55;;;2.10;;
13419;SDS011;6781;58.440;15.470;2023-05-10T11:43:40;3.72;;;2.28;;
13419;SDS011;6781;58.440;15.470;2023-05-10T11:46:09;3.28;;;2.10;;
13419;SDS011;6781;58.440;15.470;2023-05-10T11:48:42;2.78;;;2.20;;
13419;SDS011;6781;58.440;15.470;2023-05-10T11:51:10;5.22;;;2.13;;
13419;SDS011;6781;58.440;15.470;2023-05-10T11:53:42;2.42;;;2.13;;
13419;SDS011;6781;58.440;15.470;2023-05-10T11:56:09;2.47;;;2.28;;
13419;SDS011;6781;58.440;15.470;2023-05-10T11:58:37;3.08;;;2.30;;
13419;SDS011;6781;58.440;15.470;2023-05-10T12:01:06;2.90;;;2.22;;
13419;SDS011;6781;58.440;15.470;2023-05-10T12:03:35;2.42;;;2.22;;
13419;SDS011;6781;58.440;15.470;2023-05-10T12:06:03;5.03;;;2.28;;
13419;SDS011;6781;58.440;15.470;2023-05-10T12:08:33;4.85;;;2.42;;
13419;SDS011;6781;58.440;15.470;2023-05-10T12:11:05;3.95;;;2.20;;
13419;SDS011;6781;58.440;15.470;2023-05-10T12:13:37;4.43;;;2.35;;
13419;SDS011;6781;58.440;15.470;2023-05-10T12:16:12;3.63;;;2.33;;
13419;SDS011;6781;58.440;15.470;2023-05-10T12:18:40;2.90;;;2.00;;
13419;SDS011;6781;58.440;15.470;2023-05-10T12:21:09;3.70;;;2.33;;
13419;SDS011;6781;58.440;15.470;2023-05-10T12:23:38;6.30;;;2.30;;
13419;SDS011;6781;58.440;15.470;2023-05-10T12:26:06;2.17;;;1.98;;
13419;SDS011;6781;58.440;15.470;2023-05-10T12:28:38;2.45;;;2.22;;
13419;SDS011;6781;58.440;15.470;2023-05-10T12:31:06;5.05;;;2.30;;
13419;SDS011;6781;58.440;15.470;2023-05-10T12:33:36;3.03;;;2.15;;
13419;SDS011;6781;58.440;15.470;2023-05-10T12:36:16;4.63;;;2.10;;
13419;SDS011;6781;58.440;15.470;2023-05-10T12:39:15;2.45;;;2.25;;
13419;SDS011;6781;58.440;15.470;2023-05-10T12:41:42;3.92;;;2.13;;
13419;SDS011;6781;58.440;15.470;2023-05-10T12:44:09;2.70;;;2.20;;
13419;SDS011;6781;58.440;15.470;2023-05-10T12:46:37;3.15;;;2.10;;
13419;SDS011;6781;58.440;15.470;2023-05-10T12:49:04;2.75;;;2.10;;
13419;SDS011;6781;58.440;15.470;2023-05-10T12:51:31;3.35;;;2.17;;
13419;SDS011;6781;58.440;15.470;2023-05-10T12:53:58;2.42;;;2.33;;
13419;SDS011;6781;58.440;15.470;2023-05-10T12:56:27;2.40;;;2.20;;
13419;SDS011;6781;58.440;15.470;2023-05-10T12:58:54;2.83;;;2.20;;
13419;SDS011;6781;58.440;15.470;2023-05-10T13:01:22;3.30;;;2.17;;
13419;SDS011;6781;58.440;15.470;2023-05-10T13:03:49;4.15;;;2.35;;
13419;SDS011;6781;58.440;15.470;2023-05-10T13:06:16;3.35;;;2.38;;
13419;SDS011;6781;58.440;15.470;2023-05-10T13:08:44;2.58;;;2.35;;
13419;SDS011;6781;58.440;15.470;2023-05-10T13:11:11;4.32;;;2.22;;
13419;SDS011;6781;58.440;15.470;2023-05-10T13:13:45;2.45;;;2.25;;
13419;SDS011;6781;58.440;15.470;2023-05-10T13:16:12;3.20;;;2.20;;
13419;SDS011;6781;58.440;15.470;2023-05-10T13:18:39;4.50;;;1.95;;
13419;SDS011;6781;58.440;15.470;2023-05-10T13:21:09;3.42;;;2.08;;
13419;SDS011;6781;58.440;15.470;2023-05-10T13:23:36;3.60;;;2.17;;
13419;SDS011;6781;58.440;15.470;2023-05-10T13:26:03;2.50;;;2.00;;
13419;SDS011;6781;58.440;15.470;2023-05-10T13:28:32;2.78;;;2.13;;
13419;SDS011;6781;58.440;15.470;2023-05-10T13:31:01;10.80;;;2.63;;
13419;SDS011;6781;58.440;15.470;2023-05-10T13:33:31;2.38;;;2.17;;
13419;SDS011;6781;58.440;15.470;2023-05-10T13:36:08;3.40;;;2.28;;
13419;SDS011;6781;58.440;15.470;2023-05-10T13:38:40;2.75;;;2.30;;
13419;SDS011;6781;58.440;15.470;2023-05-10T13:41:08;3.47;;;2.25;;
13419;SDS011;6781;58.440;15.470;2023-05-10T13:43:37;2.97;;;2.05;;
13419;SDS011;6781;58.440;15.470;2023-05-10T13:46:06;3.28;;;2.10;;
13419;SDS011;6781;58.440;15.470;2023-05-10T13:48:33;2.28;;;2.00;;
13419;SDS011;6781;58.440;15.470;2023-05-10T13:51:03;5.32;;;2.30;;
13419;SDS011;6781;58.440;15.470;2023-05-10T13:53:30;3.35;;;2.00;;
13419;SDS011;6781;58.440;15.470;2023-05-10T13:56:01;3.00;;;2.10;;
13419;SDS011;6781;58.440;15.470;2023-05-10T13:58:31;2.40;;;2.20;;
13419;SDS011;6781;58.440;15.470;2023-05-10T14:01:00;3.97;;;2.13;;
13419;SDS011;6781;58.440;15.470;2023-05-10T14:03:32;4.07;;;2.33;;
13419;SDS011;6781;58.440;15.470;2023-05-10T14:05:59;2.65;;;2.13;;
13419;SDS011;6781;58.440;15.470;2023-05-10T14:08:34;2.38;;;2.00;;
13419;SDS011;6781;58.440;15.470;2023-05-10T14:11:02;3.35;;;1.83;;
13419;SDS011;6781;58.440;15.470;2023-05-10T14:13:31;3.75;;;2.15;;
13419;SDS011;6781;58.440;15.470;2023-05-10T14:15:58;3.45;;;2.15;;
13419;SDS011;6781;58.440;15.470;2023-05-10T14:18:26;3.90;;;2.25;;
13419;SDS011;6781;58.440;15.470;2023-05-10T14:20:55;3.08;;;2.25;;
13419;SDS011;6781;58.440;15.470;2023-05-10T14:23:22;4.13;;;1.98;;
13419;SDS011;6781;58.440;15.470;2023-05-10T14:25:51;4.45;;;2.15;;
13419;SDS011;6781;58.440;15.470;2023-05-10T14:28:20;2.40;;;2.20;;
13419;SDS011;6781;58.440;15.470;2023-05-10T14:30:48;2.83;;;2.13;;
13419;SDS011;6781;58.440;15.470;2023-05-10T14:33:17;3.90;;;2.50;;
13419;SDS011;6781;58.440;15.470;2023-05-10T14:35:44;4.45;;;1.90;;
13419;SDS011;6781;58.440;15.470;2023-05-10T14:38:13;2.05;;;1.95;;
13419;SDS011;6781;58.440;15.470;2023-05-10T14:40:40;5.10;;;2.08;;
13419;SDS011;6781;58.440;15.470;2023-05-10T14:43:07;3.17;;;1.95;;
13419;SDS011;6781;58.440;15.470;2023-05-10T14:45:34;3.70;;;1.83;;
13419;SDS011;6781;58.440;15.470;2023-05-10T14:48:01;2.30;;;2.10;;
13419;SDS011;6781;58.440;15.470;2023-05-10T14:50:29;2.70;;;2.00;;
13419;SDS011;6781;58.440;15.470;2023-05-10T14:52:57;3.72;;;2.22;;
13419;SDS011;6781;58.440;15.470;2023-05-10T14:55:25;3.92;;;2.08;;
13419;SDS011;6781;58.440;15.470;2023-05-10T14:57:54;2.85;;;1.90;;
13419;SDS011;6781;58.440;15.470;2023-05-10T15:00:23;2.28;;;2.13;;
13419;SDS011;6781;58.440;15.470;2023-05-10T15:02:50;2.13;;;2.00;;
13419;SDS011;6781;58.440;15.470;2023-05-10T15:05:18;3.97;;;1.85;;
13419;SDS011;6781;58.440;15.470;2023-05-10T15:07:45;5.32;;;2.10;;
13419;SDS011;6781;58.440;15.470;2023-05-10T15:10:12;2.83;;;2.30;;
13419;SDS011;6781;58.440;15.470;2023-05-10T15:12:41;3.67;;;2.15;;
13419;SDS011;6781;58.440;15.470;2023-05-10T15:15:25;4.13;;;2.10;;
13419;SDS011;6781;58.440;15.470;2023-05-10T15:17:52;2.30;;;2.10;;
13419;SDS011;6781;58.440;15.470;2023-05-10T15:20:20;2.45;;;2.25;;
13419;SDS011;6781;58.440;15.470;2023-05-10T15:22:47;6.15;;;2.08;;